Time;durP1;ratioP1;P1;durP2;ratioP2;P2;SDS_P1;SDS_P2;PMS_P1;PMS_P2;Temp;Humidity;BMP_temperature;BMP_pressure;BME280_temperature;BME280_humidity;BME280_pressure;Samples;Min_cycle;Max_cycle;Signal;HPM_P1;HPM_P2
2022/12/05 00:00:56;;;;;;;44.10;22.57;;;;;;;;;;6237741;28;20033;-75
2022/12/05 00:04:01;;;;;;;43.50;21.10;;;;;;;;;;6241600;28;20094;-75
2022/12/05 00:07:01;;;;;;;45.90;22.88;;;;;;;;;;6241859;28;20079;-75
2022/12/05 00:10:01;;;;;;;41.53;20.87;;;;;;;;;;6246916;28;20029;-74
2022/12/05 00:13:01;;;;;;;45.17;21.77;;;;;;;;;;6241743;28;20030;-74
2022/12/05 00:16:05;;;;;;;42.78;21.70;;;;;;;;;;6241051;28;20021;-74
2022/12/05 00:19:06;;;;;;;49.30;22.95;;;;;;;;;;6236355;28;20048;-75
2022/12/05 00:22:06;;;;;;;44.07;20.77;;;;;;;;;;6243223;28;20465;-75
2022/12/05 00:25:07;;;;;;;47.00;22.17;;;;;;;;;;6241177;28;20048;-75
2022/12/05 00:28:07;;;;;;;45.10;22.60;;;;;;;;;;6239689;28;20352;-75
2022/12/05 00:31:10;;;;;;;44.60;21.43;;;;;;;;;;6234559;28;20022;-75
2022/12/05 00:34:10;;;;;;;42.30;21.13;;;;;;;;;;6240779;28;20078;-74
2022/12/05 00:37:10;;;;;;;44.20;23.07;;;;;;;;;;6240654;28;20017;-75
2022/12/05 00:40:10;;;;;;;44.37;21.40;;;;;;;;;;6244253;28;20162;-75
2022/12/05 00:43:10;;;;;;;51.07;22.63;;;;;;;;;;6240748;28;20504;-75
2022/12/05 00:46:12;;;;;;;45.70;20.38;;;;;;;;;;6239988;28;20100;-75
2022/12/05 00:49:13;;;;;;;45.22;19.55;;;;;;;;;;6240223;28;20048;-75
2022/12/05 00:52:13;;;;;;;46.53;20.67;;;;;;;;;;6242390;28;20029;-75
2022/12/05 00:55:13;;;;;;;47.20;22.98;;;;;;;;;;6239611;28;20040;-75
2022/12/05 00:58:13;;;;;;;44.60;20.67;;;;;;;;;;6240891;28;20095;-75
2022/12/05 01:01:24;;;;;;;48.40;20.13;;;;;;;;;;6239507;28;20034;-74
2022/12/05 01:04:24;;;;;;;40.15;19.67;;;;;;;;;;6236033;28;20368;-74
2022/12/05 01:07:24;;;;;;;46.40;21.80;;;;;;;;;;6241925;28;20215;-75
2022/12/05 01:10:25;;;;;;;38.33;18.70;;;;;;;;;;6241580;28;20071;-75
2022/12/05 01:13:25;;;;;;;47.40;22.20;;;;;;;;;;6233942;28;20033;-75
2022/12/05 01:16:26;;;;;;;39.73;20.90;;;;;;;;;;6237890;28;20104;-75
2022/12/05 01:19:28;;;;;;;47.58;21.85;;;;;;;;;;6239281;28;20108;-76
2022/12/05 01:22:28;;;;;;;45.33;21.13;;;;;;;;;;6228535;28;20030;-75
2022/12/05 01:25:28;;;;;;;38.97;20.70;;;;;;;;;;6217170;28;20132;-75
2022/12/05 01:28:28;;;;;;;45.22;20.92;;;;;;;;;;6236670;28;20022;-75
2022/12/05 01:31:30;;;;;;;43.17;21.60;;;;;;;;;;6239285;28;20057;-75
2022/12/05 01:34:30;;;;;;;44.67;20.70;;;;;;;;;;6231914;28;20037;-75
2022/12/05 01:37:30;;;;;;;41.43;20.63;;;;;;;;;;6237823;28;20025;-75
2022/12/05 01:40:32;;;;;;;43.28;20.50;;;;;;;;;;6238877;28;20023;-75
2022/12/05 01:43:32;;;;;;;40.13;20.58;;;;;;;;;;6237353;28;20036;-75
2022/12/05 01:46:33;;;;;;;46.83;22.40;;;;;;;;;;6236606;28;20422;-75
2022/12/05 01:49:36;;;;;;;37.93;18.43;;;;;;;;;;6239442;28;20437;-74
2022/12/05 01:52:37;;;;;;;44.58;21.70;;;;;;;;;;6240151;28;20384;-75
2022/12/05 01:55:37;;;;;;;44.80;22.53;;;;;;;;;;6240232;28;20116;-75
2022/12/05 01:58:40;;;;;;;40.07;19.53;;;;;;;;;;6237596;28;20053;-75
2022/12/05 02:01:41;;;;;;;42.35;19.55;;;;;;;;;;6237703;28;20516;-75
2022/12/05 02:04:47;;;;;;;38.13;20.13;;;;;;;;;;6231874;28;20018;-76
2022/12/05 02:07:48;;;;;;;42.40;20.30;;;;;;;;;;6237561;28;20018;-75
2022/12/05 02:10:52;;;;;;;42.73;21.37;;;;;;;;;;6242190;28;20476;-74
2022/12/05 02:14:02;;;;;;;42.35;18.75;;;;;;;;;;6240382;28;20029;-75
2022/12/05 02:17:22;;;;;;;41.20;21.92;;;;;;;;;;6235862;28;20033;-75
2022/12/05 02:20:38;;;;;;;43.03;21.05;;;;;;;;;;6235224;28;20375;-75
2022/12/05 02:23:53;;;;;;;37.17;18.58;;;;;;;;;;6236488;28;20021;-75
2022/12/05 02:27:08;;;;;;;38.78;19.25;;;;;;;;;;6231688;28;20025;-74
2022/12/05 02:30:11;;;;;;;36.58;17.00;;;;;;;;;;6238049;28;20109;-74
2022/12/05 02:33:12;;;;;;;42.13;19.58;;;;;;;;;;6236604;28;20029;-74
2022/12/05 02:36:20;;;;;;;36.75;20.35;;;;;;;;;;6238209;28;20382;-76
2022/12/05 02:39:24;;;;;;;40.88;20.45;;;;;;;;;;6235452;28;20411;-75
2022/12/05 02:42:30;;;;;;;42.17;20.35;;;;;;;;;;6233646;28;20037;-75
2022/12/05 02:45:33;;;;;;;38.30;19.60;;;;;;;;;;6230245;28;20421;-75
2022/12/05 02:48:33;;;;;;;38.72;20.17;;;;;;;;;;6236473;28;20176;-75
2022/12/05 02:51:37;;;;;;;40.30;18.97;;;;;;;;;;6237229;28;20021;-75
2022/12/05 02:54:38;;;;;;;37.95;19.52;;;;;;;;;;6236606;28;20108;-75
2022/12/05 02:57:42;;;;;;;38.95;18.63;;;;;;;;;;6236292;28;20077;-74
2022/12/05 03:00:44;;;;;;;32.75;17.92;;;;;;;;;;6237135;28;20120;-74
2022/12/05 03:03:46;;;;;;;36.63;18.95;;;;;;;;;;6233867;28;20096;-75
2022/12/05 03:06:52;;;;;;;38.97;19.80;;;;;;;;;;6238495;28;20428;-74
2022/12/05 03:09:57;;;;;;;39.83;18.85;;;;;;;;;;6232991;28;20029;-74
2022/12/05 03:13:02;;;;;;;35.63;17.67;;;;;;;;;;6235430;28;20073;-74
2022/12/05 03:16:05;;;;;;;33.25;16.27;;;;;;;;;;6237345;28;20013;-74
2022/12/05 03:19:10;;;;;;;42.47;18.73;;;;;;;;;;6225927;28;20375;-74
2022/12/05 03:22:39;;;;;;;37.28;17.98;;;;;;;;;;6229020;28;20022;-74
2022/12/05 03:25:49;;;;;;;38.50;18.90;;;;;;;;;;6223581;28;20353;-75
2022/12/05 03:29:01;;;;;;;34.45;17.05;;;;;;;;;;6235713;28;20013;-74
2022/12/05 03:32:02;;;;;;;35.15;17.27;;;;;;;;;;6236027;28;20500;-74
2022/12/05 03:35:05;;;;;;;34.80;16.53;;;;;;;;;;6230204;28;20023;-74
2022/12/05 03:38:11;;;;;;;34.95;17.33;;;;;;;;;;6232307;28;20029;-74
2022/12/05 03:41:29;;;;;;;37.22;18.50;;;;;;;;;;6230436;28;20539;-76
2022/12/05 03:44:30;;;;;;;29.40;15.25;;;;;;;;;;6233138;28;20014;-74
2022/12/05 03:47:51;;;;;;;30.93;14.70;;;;;;;;;;6231925;28;20018;-74
2022/12/05 03:50:52;;;;;;;30.27;18.17;;;;;;;;;;6235859;28;20020;-74
2022/12/05 03:53:56;;;;;;;35.00;15.63;;;;;;;;;;6235508;28;20493;-75
2022/12/05 03:57:06;;;;;;;36.92;16.27;;;;;;;;;;6236670;28;20304;-74
2022/12/05 04:00:08;;;;;;;38.97;16.77;;;;;;;;;;6235530;28;20030;-74
2022/12/05 04:03:14;;;;;;;37.88;18.10;;;;;;;;;;6245776;28;20619;-74
2022/12/05 04:06:18;;;;;;;30.58;16.98;;;;;;;;;;6242817;28;20028;-74
2022/12/05 04:09:21;;;;;;;34.03;15.80;;;;;;;;;;6233023;28;20426;-74
2022/12/05 04:12:26;;;;;;;32.22;15.15;;;;;;;;;;6245667;28;20063;-74
2022/12/05 04:17:02;;;;;;;32.03;17.13;;;;;;;;;;6233625;28;20028;-74
2022/12/05 04:19:14;;;;;;;34.90;17.10;;;;;;;;;;6230915;28;20118;-75
2022/12/05 04:22:14;;;;;;;35.90;17.52;;;;;;;;;;6232918;28;20103;-74
2022/12/05 04:25:34;;;;;;;33.57;16.10;;;;;;;;;;6235347;28;20006;-74
2022/12/05 04:28:34;;;;;;;38.95;19.05;;;;;;;;;;6233516;28;20084;-75
2022/12/05 04:31:47;;;;;;;38.97;19.67;;;;;;;;;;6230270;28;20099;-75
2022/12/05 04:34:51;;;;;;;37.83;18.33;;;;;;;;;;6235312;28;20022;-74
2022/12/05 04:37:54;;;;;;;40.17;19.60;;;;;;;;;;6227308;28;20033;-74
2022/12/05 04:41:00;;;;;;;36.78;20.77;;;;;;;;;;6234442;28;20080;-74
2022/12/05 04:44:02;;;;;;;34.42;19.70;;;;;;;;;;6234324;28;20013;-75
2022/12/05 04:47:04;;;;;;;37.28;19.58;;;;;;;;;;6233832;28;20041;-75
2022/12/05 04:50:06;;;;;;;33.00;18.55;;;;;;;;;;6239438;28;20493;-74
2022/12/05 04:53:08;;;;;;;35.92;17.02;;;;;;;;;;6240638;28;20025;-74
2022/12/05 04:56:10;;;;;;;33.83;18.23;;;;;;;;;;6240647;28;20084;-74
2022/12/05 04:59:10;;;;;;;31.58;18.23;;;;;;;;;;6244316;28;20099;-74
2022/12/05 05:02:12;;;;;;;36.70;20.17;;;;;;;;;;6239787;28;20580;-74
2022/12/05 05:05:14;;;;;;;37.08;19.23;;;;;;;;;;6239267;28;20419;-74
2022/12/05 05:08:14;;;;;;;;;;;;;;;;;;6240642;28;20021;-74
2022/12/05 05:11:16;;;;;;;39.10;19.05;;;;;;;;;;6241879;28;19909;-73
2022/12/05 05:14:16;;;;;;;35.15;18.63;;;;;;;;;;6239320;28;20060;-74
2022/12/05 05:17:16;;;;;;;37.92;19.23;;;;;;;;;;6233602;28;20018;-74
2022/12/05 05:20:22;;;;;;;35.63;16.42;;;;;;;;;;6239207;28;20017;-73
2022/12/05 05:23:22;;;;;;;33.50;17.70;;;;;;;;;;6245237;28;20021;-74
2022/12/05 05:26:23;;;;;;;41.13;18.97;;;;;;;;;;6238309;28;20306;-74
2022/12/05 05:29:23;;;;;;;33.13;16.43;;;;;;;;;;6238293;28;20036;-74
2022/12/05 05:32:24;;;;;;;36.97;18.90;;;;;;;;;;6238973;28;20030;-74
2022/12/05 05:35:24;;;;;;;39.50;18.23;;;;;;;;;;6237838;28;20471;-74
2022/12/05 05:38:24;;;;;;;32.50;18.80;;;;;;;;;;6238506;28;20014;-74
2022/12/05 05:41:28;;;;;;;32.70;16.65;;;;;;;;;;6234597;28;20047;-73
2022/12/05 05:44:28;;;;;;;35.20;17.02;;;;;;;;;;6237219;28;20100;-73
2022/12/05 05:47:29;;;;;;;32.97;15.77;;;;;;;;;;6236432;28;20028;-73
2022/12/05 05:50:29;;;;;;;35.07;17.13;;;;;;;;;;6235006;28;20459;-73
2022/12/05 05:53:29;;;;;;;30.73;15.97;;;;;;;;;;6229468;28;20036;-74
2022/12/05 05:56:29;;;;;;;30.17;17.23;;;;;;;;;;6233512;28;20322;-74
2022/12/05 05:59:29;;;;;;;33.60;16.50;;;;;;;;;;6237446;28;20108;-73
2022/12/05 06:02:30;;;;;;;32.87;15.60;;;;;;;;;;6238493;28;20013;-73
2022/12/05 06:05:31;;;;;;;38.33;18.70;;;;;;;;;;6230776;28;20022;-74
2022/12/05 06:08:32;;;;;;;35.67;18.42;;;;;;;;;;6232035;28;20084;-74
2022/12/05 06:11:32;;;;;;;36.83;18.90;;;;;;;;;;6232770;28;20706;-74
2022/12/05 06:14:32;;;;;;;38.20;18.87;;;;;;;;;;6227040;28;20033;-74
2022/12/05 06:17:32;;;;;;;40.93;18.40;;;;;;;;;;6237021;28;20039;-74
2022/12/05 06:20:33;;;;;;;26.40;15.00;;;;;;;;;;6228275;28;20113;-74
2022/12/05 06:23:34;;;;;;;33.03;17.65;;;;;;;;;;6232329;28;20013;-73
2022/12/05 06:26:34;;;;;;;31.15;17.45;;;;;;;;;;6229786;28;20024;-74
2022/12/05 06:29:35;;;;;;;37.73;21.30;;;;;;;;;;6235393;28;20017;-74
2022/12/05 06:32:35;;;;;;;37.57;19.13;;;;;;;;;;6235714;28;20018;-74
2022/12/05 06:35:35;;;;;;;37.67;18.57;;;;;;;;;;6234948;28;20055;-74
2022/12/05 06:38:35;;;;;;;39.67;19.75;;;;;;;;;;6236311;28;20020;-74
2022/12/05 06:41:36;;;;;;;35.43;20.30;;;;;;;;;;6236074;28;20294;-75
2022/12/05 06:44:36;;;;;;;28.63;15.57;;;;;;;;;;6229854;28;20040;-74
2022/12/05 06:47:36;;;;;;;32.47;16.70;;;;;;;;;;6243554;28;20110;-73
2022/12/05 06:50:36;;;;;;;34.10;17.63;;;;;;;;;;6231619;28;20513;-74
2022/12/05 06:53:37;;;;;;;34.65;18.55;;;;;;;;;;6228503;28;20017;-73
2022/12/05 06:56:37;;;;;;;30.67;16.97;;;;;;;;;;6223897;28;20722;-74
2022/12/05 06:59:37;;;;;;;32.87;16.50;;;;;;;;;;6229616;28;20054;-74
2022/12/05 07:02:37;;;;;;;31.83;17.60;;;;;;;;;;6235086;28;20354;-74
2022/12/05 07:05:38;;;;;;;29.70;17.20;;;;;;;;;;6234434;28;20021;-74
2022/12/05 07:08:38;;;;;;;30.00;15.00;;;;;;;;;;6234217;28;20048;-74
2022/12/05 07:11:38;;;;;;;33.00;16.70;;;;;;;;;;6229005;28;20026;-75
2022/12/05 07:14:38;;;;;;;26.07;16.13;;;;;;;;;;6229226;28;20210;-74
2022/12/05 07:17:39;;;;;;;31.37;17.37;;;;;;;;;;6227763;28;20470;-75
2022/12/05 07:20:39;;;;;;;27.70;15.00;;;;;;;;;;6233960;28;20108;-74
2022/12/05 07:23:40;;;;;;;31.40;16.50;;;;;;;;;;6229570;28;20025;-74
2022/12/05 07:26:40;;;;;;;28.00;15.60;;;;;;;;;;6231183;28;20255;-74
2022/12/05 07:29:40;;;;;;;23.93;14.83;;;;;;;;;;6235525;28;20021;-74
2022/12/05 07:32:41;;;;;;;26.56;15.90;;;;;;;;;;6235200;28;20025;-74
2022/12/05 07:35:41;;;;;;;32.33;16.73;;;;;;;;;;6219691;28;20033;-74
2022/12/05 07:38:41;;;;;;;28.87;17.20;;;;;;;;;;6231049;28;20082;-75
2022/12/05 07:41:42;;;;;;;28.83;16.97;;;;;;;;;;6234061;28;20029;-74
2022/12/05 07:44:42;;;;;;;27.20;15.47;;;;;;;;;;6231009;28;20040;-73
2022/12/05 07:47:42;;;;;;;26.07;16.00;;;;;;;;;;6238424;28;20095;-75
2022/12/05 07:50:42;;;;;;;28.56;15.94;;;;;;;;;;6231008;28;20389;-74
2022/12/05 07:53:43;;;;;;;29.77;17.63;;;;;;;;;;6235137;28;20044;-74
2022/12/05 07:56:43;;;;;;;28.53;15.63;;;;;;;;;;6235817;28;20028;-75
2022/12/05 07:59:43;;;;;;;31.55;17.70;;;;;;;;;;6236130;28;20018;-74
2022/12/05 08:02:43;;;;;;;23.02;14.48;;;;;;;;;;6237356;28;20043;-74
2022/12/05 08:05:43;;;;;;;32.20;17.23;;;;;;;;;;6235145;28;20163;-74
2022/12/05 08:08:45;;;;;;;27.63;15.37;;;;;;;;;;6234094;28;20033;-74
2022/12/05 08:11:45;;;;;;;32.47;16.97;;;;;;;;;;6224541;28;20477;-74
2022/12/05 08:14:45;;;;;;;28.63;16.00;;;;;;;;;;6233702;28;20303;-74
2022/12/05 08:17:45;;;;;;;30.02;16.98;;;;;;;;;;6236452;28;20325;-73
2022/12/05 08:20:45;;;;;;;30.63;18.65;;;;;;;;;;6228643;28;20040;-74
2022/12/05 08:23:45;;;;;;;35.95;17.80;;;;;;;;;;6234815;28;20021;-74
2022/12/05 08:26:46;;;;;;;27.03;15.77;;;;;;;;;;6234103;28;20033;-74
2022/12/05 08:29:46;;;;;;;28.77;16.27;;;;;;;;;;6223955;28;20435;-72
2022/12/05 08:32:46;;;;;;;27.03;16.70;;;;;;;;;;6235848;28;20040;-73
2022/12/05 08:35:46;;;;;;;25.90;15.93;;;;;;;;;;6240073;28;20493;-74
2022/12/05 08:38:47;;;;;;;27.70;16.03;;;;;;;;;;6232926;28;20495;-74
2022/12/05 08:41:47;;;;;;;33.43;17.87;;;;;;;;;;6233884;28;20076;-74
2022/12/05 08:44:49;;;;;;;26.93;15.73;;;;;;;;;;6237477;28;20295;-74
2022/12/05 08:47:50;;;;;;;26.45;16.25;;;;;;;;;;6235033;28;20032;-74
2022/12/05 08:50:50;;;;;;;26.17;15.70;;;;;;;;;;6236337;28;20018;-74
2022/12/05 08:53:50;;;;;;;25.97;15.67;;;;;;;;;;6253728;28;20563;-74
2022/12/05 08:56:50;;;;;;;28.13;16.50;;;;;;;;;;6236064;28;20516;-73
2022/12/05 08:59:51;;;;;;;28.70;18.33;;;;;;;;;;6239421;28;20025;-74
2022/12/05 09:02:51;;;;;;;24.40;15.00;;;;;;;;;;6236989;28;20642;-74
2022/12/05 09:05:51;;;;;;;25.07;15.40;;;;;;;;;;6235852;28;20080;-73
2022/12/05 09:08:52;;;;;;;24.63;14.32;;;;;;;;;;6234895;28;20018;-73
2022/12/05 09:11:52;;;;;;;26.00;16.43;;;;;;;;;;6242928;28;20220;-74
2022/12/05 09:14:52;;;;;;;26.47;15.20;;;;;;;;;;6238410;28;20102;-73
2022/12/05 09:17:53;;;;;;;22.88;15.18;;;;;;;;;;6231008;28;20029;-73
2022/12/05 09:20:53;;;;;;;25.93;15.60;;;;;;;;;;6236774;28;20451;-73
2022/12/05 09:23:54;;;;;;;27.42;15.80;;;;;;;;;;6239867;28;20485;-74
2022/12/05 09:26:54;;;;;;;25.53;16.87;;;;;;;;;;6236549;28;20089;-72
2022/12/05 09:29:54;;;;;;;26.87;17.67;;;;;;;;;;6241237;28;20109;-73
2022/12/05 09:32:55;;;;;;;26.83;17.90;;;;;;;;;;6235151;28;20043;-74
2022/12/05 09:35:55;;;;;;;26.20;17.23;;;;;;;;;;6242587;28;20021;-72
2022/12/05 09:38:58;;;;;;;25.77;16.67;;;;;;;;;;6241785;28;20044;-72
2022/12/05 09:42:17;;;;;;;23.75;15.07;;;;;;;;;;6243706;28;20496;-72
2022/12/05 09:45:38;;;;;;;21.73;13.90;;;;;;;;;;6236551;28;20092;-74
2022/12/05 09:48:39;;;;;;;25.02;16.33;;;;;;;;;;6233429;28;20046;-74
2022/12/05 09:51:43;;;;;;;26.52;17.88;;;;;;;;;;6235717;28;20362;-73
2022/12/05 09:54:43;;;;;;;28.92;18.25;;;;;;;;;;6239054;28;20033;-73
2022/12/05 09:57:49;;;;;;;25.17;17.07;;;;;;;;;;6238110;28;20049;-73
2022/12/05 10:00:51;;;;;;;29.88;16.83;;;;;;;;;;6234642;28;20032;-73
2022/12/05 10:04:04;;;;;;;26.95;15.45;;;;;;;;;;6227473;28;20481;-73
2022/12/05 10:07:07;;;;;;;22.80;14.93;;;;;;;;;;6229059;28;20018;-73
2022/12/05 10:10:28;;;;;;;24.60;16.25;;;;;;;;;;6237420;28;20039;-73
2022/12/05 10:13:31;;;;;;;26.10;16.33;;;;;;;;;;6243192;28;20026;-73
2022/12/05 10:16:34;;;;;;;27.73;16.35;;;;;;;;;;6240833;28;20151;-73
2022/12/05 10:19:39;;;;;;;24.90;16.55;;;;;;;;;;6240487;28;20014;-73
2022/12/05 10:22:45;;;;;;;28.23;16.98;;;;;;;;;;6235995;28;20059;-73
2022/12/05 10:25:45;;;;;;;29.83;16.23;;;;;;;;;;6235613;28;20014;-73
2022/12/05 10:28:55;;;;;;;31.33;18.67;;;;;;;;;;6239076;28;20805;-73
2022/12/05 10:32:02;;;;;;;30.95;17.75;;;;;;;;;;6240393;28;20021;-73
2022/12/05 10:35:15;;;;;;;30.67;19.42;;;;;;;;;;6230740;28;20084;-73
2022/12/05 10:38:31;;;;;;;24.58;16.48;;;;;;;;;;6241649;28;20030;-73
2022/12/05 10:41:32;;;;;;;23.10;14.60;;;;;;;;;;6239426;28;20440;-73
2022/12/05 10:44:33;;;;;;;24.08;15.15;;;;;;;;;;6228614;28;20037;-73
2022/12/05 10:47:34;;;;;;;23.30;14.70;;;;;;;;;;6239870;28;20022;-73
2022/12/05 10:50:35;;;;;;;23.83;14.63;;;;;;;;;;6239613;28;20009;-73
2022/12/05 10:53:40;;;;;;;21.00;14.15;;;;;;;;;;6229553;28;20017;-73
2022/12/05 10:56:42;;;;;;;26.35;15.15;;;;;;;;;;6236795;28;20024;-73
2022/12/05 10:59:44;;;;;;;21.65;13.10;;;;;;;;;;6227752;28;20033;-73
2022/12/05 11:02:46;;;;;;;19.80;11.93;;;;;;;;;;6233532;28;20425;-73
2022/12/05 11:05:48;;;;;;;22.25;14.90;;;;;;;;;;6238601;28;20105;-73
2022/12/05 11:08:53;;;;;;;21.80;14.27;;;;;;;;;;6239154;28;20010;-73
2022/12/05 11:12:02;;;;;;;24.08;14.77;;;;;;;;;;6233182;28;20018;-73
2022/12/05 11:15:05;;;;;;;23.23;13.70;;;;;;;;;;6227972;28;20092;-73
2022/12/05 11:18:25;;;;;;;22.67;14.02;;;;;;;;;;6239245;28;20494;-73
2022/12/05 11:21:25;;;;;;;20.63;12.48;;;;;;;;;;6238410;28;20048;-72
2022/12/05 11:24:27;;;;;;;23.30;14.20;;;;;;;;;;6227262;28;20022;-72
2022/12/05 11:27:30;;;;;;;26.05;15.10;;;;;;;;;;6231205;28;20092;-72
2022/12/05 11:30:30;;;;;;;21.58;13.68;;;;;;;;;;6232888;28;20017;-72
2022/12/05 11:33:31;;;;;;;25.20;13.63;;;;;;;;;;6235205;28;20013;-72
2022/12/05 11:36:38;;;;;;;23.25;12.77;;;;;;;;;;6231848;28;20017;-73
2022/12/05 11:39:38;;;;;;;24.95;13.43;;;;;;;;;;6230918;28;20075;-72
2022/12/05 11:42:45;;;;;;;30.13;14.97;;;;;;;;;;6229627;28;20022;-72
2022/12/05 11:45:48;;;;;;;24.58;16.35;;;;;;;;;;6238376;28;20579;-72
2022/12/05 11:48:49;;;;;;;26.63;16.17;;;;;;;;;;6231244;28;20018;-72
2022/12/05 11:52:04;;;;;;;26.53;16.83;;;;;;;;;;6237378;28;20541;-72
2022/12/05 11:55:04;;;;;;;26.15;15.43;;;;;;;;;;6238476;28;20033;-72
2022/12/05 11:58:10;;;;;;;32.33;17.20;;;;;;;;;;6239060;28;20049;-72
2022/12/05 12:01:27;;;;;;;29.67;16.73;;;;;;;;;;6234505;28;20021;-72
2022/12/05 12:04:47;;;;;;;29.35;15.23;;;;;;;;;;6239068;28;20005;-72
2022/12/05 12:08:06;;;;;;;30.75;16.98;;;;;;;;;;6242766;28;20048;-72
2022/12/05 12:11:18;;;;;;;33.33;19.13;;;;;;;;;;6242684;28;20048;-72
2022/12/05 12:14:18;;;;;;;40.38;22.17;;;;;;;;;;6239334;28;20076;-72
2022/12/05 12:17:30;;;;;;;38.28;22.35;;;;;;;;;;6228533;28;20030;-72
2022/12/05 12:20:33;;;;;;;40.90;23.77;;;;;;;;;;6229299;28;20022;-72
2022/12/05 12:23:51;;;;;;;46.92;26.23;;;;;;;;;;6227247;28;20018;-72
2022/12/05 12:26:52;;;;;;;47.03;27.50;;;;;;;;;;6239987;28;20024;-72
2022/12/05 12:30:11;;;;;;;46.42;28.65;;;;;;;;;;6243346;28;20013;-72
2022/12/05 12:33:25;;;;;;;50.72;29.65;;;;;;;;;;6238301;28;20037;-72
2022/12/05 12:36:29;;;;;;;43.92;28.05;;;;;;;;;;6223897;28;20028;-72
2022/12/05 12:39:29;;;;;;;48.92;27.75;;;;;;;;;;6235695;28;20018;-72
2022/12/05 12:42:36;;;;;;;47.95;24.60;;;;;;;;;;6225964;28;20076;-72
2022/12/05 12:45:51;;;;;;;42.10;25.63;;;;;;;;;;6234808;28;20014;-72
2022/12/05 12:48:58;;;;;;;42.97;25.70;;;;;;;;;;6230614;28;20466;-71
2022/12/05 12:52:01;;;;;;;44.45;27.27;;;;;;;;;;6233767;28;20424;-71
2022/12/05 12:55:27;;;;;;;39.60;23.60;;;;;;;;;;6227381;28;20502;-73
2022/12/05 12:58:33;;;;;;;46.00;26.58;;;;;;;;;;6224348;28;20046;-72
2022/12/05 13:01:39;;;;;;;44.88;25.33;;;;;;;;;;6235575;28;20032;-72
2022/12/05 13:04:51;;;;;;;47.35;29.25;;;;;;;;;;6232020;28;20476;-73
2022/12/05 13:07:58;;;;;;;51.03;32.83;;;;;;;;;;6238792;28;20060;-72
2022/12/05 13:11:00;;;;;;;52.50;31.25;;;;;;;;;;6241740;28;20009;-72
2022/12/05 13:14:01;;;;;;;53.35;31.00;;;;;;;;;;6241678;28;20436;-73
2022/12/05 13:17:03;;;;;;;61.27;33.20;;;;;;;;;;6237771;28;20137;-73
2022/12/05 13:20:03;;;;;;;59.20;35.08;;;;;;;;;;6235967;28;20022;-74
2022/12/05 13:23:06;;;;;;;59.33;31.90;;;;;;;;;;6237159;28;20083;-73
2022/12/05 13:26:08;;;;;;;65.05;36.00;;;;;;;;;;6236858;28;20026;-73
2022/12/05 13:29:17;;;;;;;58.00;33.45;;;;;;;;;;6227899;28;20144;-73
2022/12/05 13:32:26;;;;;;;54.45;33.15;;;;;;;;;;6233695;28;20105;-73
2022/12/05 13:42:20;;;;;;;61.47;35.58;;;;;;;;;;6229902;28;20029;-73
2022/12/05 13:45:21;;;;;;;58.00;35.17;;;;;;;;;;6237640;28;20017;-73
2022/12/05 13:48:22;;;;;;;64.23;38.33;;;;;;;;;;6234762;28;20480;-73
2022/12/05 13:51:29;;;;;;;69.95;42.53;;;;;;;;;;6228599;28;20034;-74
2022/12/05 13:54:30;;;;;;;64.90;42.13;;;;;;;;;;6238267;28;20584;-74
2022/12/05 13:57:36;;;;;;;69.10;37.60;;;;;;;;;;6233888;28;20049;-73
2022/12/05 14:00:36;;;;;;;72.60;42.92;;;;;;;;;;6225994;28;20099;-73
2022/12/05 14:03:45;;;;;;;117.17;73.87;;;;;;;;;;6227143;28;20700;-73
2022/12/05 14:06:46;;;;;;;81.68;50.42;;;;;;;;;;6219780;28;20028;-74
2022/12/05 14:09:53;;;;;;;84.78;48.75;;;;;;;;;;6240160;28;20022;-73
2022/12/05 14:12:55;;;;;;;72.68;43.25;;;;;;;;;;6228726;28;20034;-74
2022/12/05 14:16:14;;;;;;;92.30;56.47;;;;;;;;;;6231351;28;20063;-73
2022/12/05 14:19:23;;;;;;;77.32;45.65;;;;;;;;;;6245797;28;20065;-73
2022/12/05 14:22:35;;;;;;;79.03;49.33;;;;;;;;;;6235839;28;20025;-73
2022/12/05 14:25:36;;;;;;;;;;;;;;;;;;6240576;28;20102;-73
2022/12/05 14:28:39;;;;;;;90.60;51.45;;;;;;;;;;6230070;28;19905;-73
2022/12/05 14:31:39;;;;;;;106.88;62.15;;;;;;;;;;6235423;28;20241;-74
2022/12/05 14:34:55;;;;;;;118.80;67.17;;;;;;;;;;6236293;28;20061;-72
2022/12/05 14:37:57;;;;;;;102.32;57.45;;;;;;;;;;6237216;28;20033;-73
2022/12/05 14:41:10;;;;;;;101.95;57.53;;;;;;;;;;6222910;28;20116;-72
2022/12/05 14:44:17;;;;;;;110.60;67.00;;;;;;;;;;6224049;28;20101;-72
2022/12/05 14:47:27;;;;;;;106.93;58.03;;;;;;;;;;6229960;28;20026;-73
2022/12/05 14:50:35;;;;;;;94.97;55.25;;;;;;;;;;6226475;28;20072;-73
2022/12/05 14:53:38;;;;;;;118.25;70.13;;;;;;;;;;6240285;28;20037;-73
2022/12/05 14:56:42;;;;;;;112.53;71.72;;;;;;;;;;6237799;28;20025;-73
2022/12/05 15:00:05;;;;;;;88.78;51.28;;;;;;;;;;6232539;28;20120;-73
2022/12/05 15:03:15;;;;;;;64.95;36.47;;;;;;;;;;6234812;28;20029;-73
2022/12/05 15:06:16;;;;;;;53.88;32.38;;;;;;;;;;6234588;28;20013;-73
2022/12/05 15:09:32;;;;;;;56.42;31.80;;;;;;;;;;6238264;28;20025;-73
2022/12/05 15:12:35;;;;;;;57.00;30.73;;;;;;;;;;6240573;28;20521;-73
2022/12/05 15:15:39;;;;;;;52.60;31.83;;;;;;;;;;6236705;28;20029;-73
2022/12/05 15:18:43;;;;;;;59.28;32.60;;;;;;;;;;6222665;28;20498;-74
2022/12/05 15:21:55;;;;;;;62.33;33.47;;;;;;;;;;6233840;28;20039;-73
2022/12/05 15:24:55;;;;;;;70.40;33.15;;;;;;;;;;6223470;28;20477;-73
2022/12/05 15:28:15;;;;;;;54.93;28.40;;;;;;;;;;6235897;28;20056;-74
2022/12/05 15:31:16;;;;;;;52.67;28.75;;;;;;;;;;6230341;28;20022;-73
2022/12/05 15:34:28;;;;;;;47.73;27.20;;;;;;;;;;6224485;28;20071;-73
2022/12/05 15:37:33;;;;;;;43.63;25.75;;;;;;;;;;6245475;28;20516;-74
2022/12/05 15:40:37;;;;;;;36.97;21.88;;;;;;;;;;6234793;28;20328;-73
2022/12/05 15:43:38;;;;;;;40.55;23.00;;;;;;;;;;6232728;28;20052;-73
2022/12/05 15:46:38;;;;;;;36.43;20.77;;;;;;;;;;6235605;28;20011;-73
2022/12/05 15:49:38;;;;;;;46.00;24.48;;;;;;;;;;6229824;28;20076;-73
2022/12/05 15:52:47;;;;;;;37.33;22.27;;;;;;;;;;6228784;28;20096;-73
2022/12/05 15:55:50;;;;;;;43.25;26.10;;;;;;;;;;6230183;28;20022;-73
2022/12/05 15:58:57;;;;;;;47.35;27.30;;;;;;;;;;6231572;28;20385;-74
2022/12/05 16:01:59;;;;;;;45.65;24.42;;;;;;;;;;6226933;28;20486;-73
2022/12/05 16:05:00;;;;;;;43.55;27.20;;;;;;;;;;6234997;28;20025;-73
2022/12/05 16:08:01;;;;;;;46.73;24.83;;;;;;;;;;6231470;28;20013;-73
2022/12/05 16:11:08;;;;;;;43.75;25.23;;;;;;;;;;6231890;28;20025;-73
2022/12/05 16:14:10;;;;;;;46.85;29.70;;;;;;;;;;6233022;28;20026;-73
2022/12/05 16:17:15;;;;;;;49.45;27.35;;;;;;;;;;6232373;28;20017;-73
2022/12/05 16:20:15;;;;;;;45.05;26.90;;;;;;;;;;6231735;28;20500;-73
2022/12/05 16:23:29;;;;;;;45.83;25.30;;;;;;;;;;6222428;28;20022;-73
2022/12/05 16:26:29;;;;;;;41.90;26.38;;;;;;;;;;6219850;28;20222;-73
2022/12/05 16:29:31;;;;;;;50.67;27.77;;;;;;;;;;6225311;28;20499;-73
2022/12/05 16:32:33;;;;;;;51.70;31.13;;;;;;;;;;6227972;28;20028;-73
2022/12/05 16:35:35;;;;;;;51.50;30.92;;;;;;;;;;6222640;28;20064;-73
2022/12/05 16:38:36;;;;;;;50.70;30.13;;;;;;;;;;6232611;28;20025;-73
2022/12/05 16:41:37;;;;;;;50.53;28.73;;;;;;;;;;6225231;28;20030;-73
2022/12/05 16:45:00;;;;;;;52.58;32.20;;;;;;;;;;6228299;28;20159;-73
2022/12/05 16:48:01;;;;;;;56.17;30.92;;;;;;;;;;6225588;28;20026;-73
2022/12/05 16:51:11;;;;;;;46.20;27.77;;;;;;;;;;6236487;28;20036;-73
2022/12/05 16:54:11;;;;;;;50.20;30.23;;;;;;;;;;6241333;28;20078;-72
2022/12/05 16:57:13;;;;;;;47.63;28.20;;;;;;;;;;6238404;28;20061;-73
2022/12/05 17:00:13;;;;;;;51.45;29.30;;;;;;;;;;6238921;28;20551;-73
2022/12/05 17:03:14;;;;;;;51.03;31.90;;;;;;;;;;6238758;28;20022;-73
2022/12/05 17:06:14;;;;;;;49.57;27.63;;;;;;;;;;6246105;28;20041;-73
2022/12/05 17:09:14;;;;;;;55.87;30.33;;;;;;;;;;6230235;28;20047;-73
2022/12/05 17:12:21;;;;;;;48.70;28.03;;;;;;;;;;6240907;28;20144;-72
2022/12/05 17:15:21;;;;;;;54.17;33.05;;;;;;;;;;6233554;28;20104;-73
2022/12/05 17:18:21;;;;;;;77.50;40.08;;;;;;;;;;6237603;28;20048;-74
2022/12/05 17:21:24;;;;;;;82.67;43.60;;;;;;;;;;6239142;28;20010;-73
2022/12/05 17:24:27;;;;;;;74.78;37.45;;;;;;;;;;6239438;28;20006;-73
2022/12/05 17:27:27;;;;;;;67.25;35.20;;;;;;;;;;6237155;28;20052;-73
2022/12/05 17:30:27;;;;;;;87.40;52.27;;;;;;;;;;6234008;28;20014;-73
2022/12/05 17:33:27;;;;;;;76.10;42.65;;;;;;;;;;6239488;28;20020;-73
2022/12/05 17:36:28;;;;;;;73.15;41.65;;;;;;;;;;6230347;28;20091;-73
2022/12/05 17:39:28;;;;;;;81.23;44.83;;;;;;;;;;6237024;28;20019;-72
2022/12/05 17:42:28;;;;;;;76.77;46.63;;;;;;;;;;6232252;28;20021;-72
2022/12/05 17:45:28;;;;;;;73.67;44.40;;;;;;;;;;6223903;28;20050;-72
2022/12/05 17:48:28;;;;;;;55.53;31.40;;;;;;;;;;6237120;28;20021;-72
2022/12/05 17:51:29;;;;;;;75.88;43.58;;;;;;;;;;6221762;28;20105;-72
2022/12/05 17:54:29;;;;;;;124.73;63.70;;;;;;;;;;6226842;28;20029;-73
2022/12/05 17:57:29;;;;;;;95.57;55.03;;;;;;;;;;6235838;28;20517;-73